createdAt,value
2023-11-17T00:00:24.235Z,12.54
2023-11-17T00:00:56.391Z,12.54
2023-11-17T00:01:29.225Z,12.57
2023-11-17T00:02:01.194Z,12.52
2023-11-17T00:02:33.226Z,12.41
2023-11-17T00:03:05.294Z,12.38
2023-11-17T00:03:37.315Z,12.41
2023-11-17T00:04:09.503Z,12.34
2023-11-17T00:04:41.532Z,12.41
2023-11-17T00:05:13.592Z,12.45
2023-11-17T00:05:46.081Z,12.38
2023-11-17T00:06:18.073Z,12.28
2023-11-17T00:06:50.084Z,12.35
2023-11-17T00:07:22.010Z,12.40
2023-11-17T00:07:55.506Z,12.41
2023-11-17T00:08:30.061Z,12.42
2023-11-17T00:09:02.517Z,12.40
2023-11-17T00:09:34.444Z,12.38
2023-11-17T00:10:06.898Z,12.40
2023-11-17T00:10:39.476Z,12.45
2023-11-17T00:11:12.654Z,12.36
2023-11-17T00:11:44.537Z,12.40
2023-11-17T00:12:16.419Z,12.40
2023-11-17T00:12:48.370Z,12.39
2023-11-17T00:13:20.587Z,12.37
2023-11-17T00:13:52.589Z,12.43
2023-11-17T00:14:24.487Z,12.37
2023-11-17T00:14:56.470Z,12.37
2023-11-17T00:15:29.637Z,12.33
2023-11-17T00:16:01.650Z,12.33
2023-11-17T00:16:33.788Z,12.34
2023-11-17T00:17:06.140Z,12.27
2023-11-17T00:17:38.176Z,12.32
2023-11-17T00:18:10.152Z,12.27
2023-11-17T00:18:42.127Z,12.31
2023-11-17T00:19:14.198Z,12.34
2023-11-17T00:19:47.396Z,12.31
2023-11-17T00:20:21.094Z,12.31
2023-11-17T00:20:54.132Z,12.27
2023-11-17T00:21:26.067Z,12.26
2023-11-17T00:21:58.467Z,12.29
2023-11-17T00:22:30.483Z,12.30
2023-11-17T00:23:02.409Z,12.35
2023-11-17T00:23:34.329Z,12.33
2023-11-17T00:24:07.477Z,12.33
2023-11-17T00:24:39.606Z,12.30
2023-11-17T00:25:11.568Z,12.31
2023-11-17T00:25:43.504Z,12.29
2023-11-17T00:26:15.404Z,12.29
2023-11-17T00:26:47.317Z,12.30
2023-11-17T00:27:19.205Z,12.36
2023-11-17T00:27:51.154Z,12.38
2023-11-17T00:28:26.268Z,12.39
2023-11-17T00:28:58.170Z,12.36
2023-11-17T00:29:30.073Z,12.31
2023-11-17T00:30:03.133Z,12.36
2023-11-17T00:30:35.050Z,12.29
2023-11-17T00:31:14.416Z,12.31
2023-11-17T00:31:46.323Z,12.36
2023-11-17T00:32:18.231Z,12.40
2023-11-17T00:32:50.534Z,12.35
2023-11-17T00:33:23.407Z,12.38
2023-11-17T00:33:55.906Z,12.31
2023-11-17T00:34:27.948Z,12.31
2023-11-17T00:35:00.750Z,12.32
2023-11-17T00:35:32.760Z,12.33
2023-11-17T00:36:05.992Z,12.36
2023-11-17T00:36:37.898Z,12.36
2023-11-17T00:37:11.282Z,12.38
2023-11-17T00:37:44.842Z,12.39
2023-11-17T00:38:16.737Z,12.34
2023-11-17T00:38:48.647Z,12.33
2023-11-17T00:39:22.457Z,12.31
2023-11-17T00:39:55.691Z,12.29
2023-11-17T00:40:27.652Z,12.24
2023-11-17T00:41:01.157Z,12.31
2023-11-17T00:41:35.650Z,12.30
2023-11-17T00:42:09.783Z,12.28
2023-11-17T00:42:41.886Z,12.30
2023-11-17T00:43:13.894Z,12.30
2023-11-17T00:43:46.130Z,12.33
2023-11-17T00:44:18.083Z,12.34
2023-11-17T00:44:50.008Z,12.16
2023-11-17T00:45:21.899Z,12.22
2023-11-17T00:46:01.059Z,12.22
2023-11-17T00:46:33.869Z,12.20
2023-11-17T00:47:06.505Z,12.25
2023-11-17T00:47:38.739Z,12.25
2023-11-17T00:48:11.403Z,12.26
2023-11-17T00:48:43.389Z,12.20
2023-11-17T00:49:15.354Z,12.14
2023-11-17T00:49:47.261Z,12.15
2023-11-17T00:50:19.246Z,12.15
2023-11-17T00:50:51.163Z,12.14
2023-11-17T00:51:23.143Z,12.19
2023-11-17T00:51:55.498Z,12.19
2023-11-17T00:52:27.466Z,12.22
2023-11-17T00:53:05.949Z,12.24
2023-11-17T00:53:37.836Z,12.23
2023-11-17T00:54:09.731Z,12.19
2023-11-17T00:54:48.530Z,12.11
2023-11-17T00:55:20.851Z,12.17
2023-11-17T00:55:56.542Z,12.12
2023-11-17T00:56:28.531Z,12.18
2023-11-17T00:57:00.499Z,12.18
2023-11-17T00:57:33.456Z,12.17
2023-11-17T00:58:05.403Z,12.09
2023-11-17T00:58:38.172Z,12.14
2023-11-17T00:59:13.303Z,12.17
2023-11-17T00:59:45.401Z,12.15
2023-11-17T01:00:17.294Z,12.07
2023-11-17T01:00:49.224Z,12.07
2023-11-17T01:01:22.040Z,12.03
2023-11-17T01:01:54.153Z,12.01
2023-11-17T01:02:26.423Z,12.02
2023-11-17T01:02:59.301Z,12.01
2023-11-17T01:03:31.319Z,12.04
2023-11-17T01:04:03.282Z,12.10
2023-11-17T01:04:35.319Z,12.16
2023-11-17T01:05:08.687Z,12.18
2023-11-17T01:05:40.600Z,12.18
2023-11-17T01:06:12.553Z,12.11
2023-11-17T01:06:44.522Z,12.11
2023-11-17T01:07:19.274Z,12.08
2023-11-17T01:07:51.241Z,11.98
2023-11-17T01:08:23.235Z,11.97
2023-11-17T01:08:55.168Z,12.02
2023-11-17T01:09:27.547Z,12.04
2023-11-17T01:10:00.385Z,12.05
2023-11-17T01:10:32.359Z,12.03
2023-11-17T01:11:04.515Z,12.11
2023-11-17T01:11:36.465Z,12.11
2023-11-17T01:12:08.477Z,12.07
2023-11-17T01:12:40.544Z,12.04
2023-11-17T01:13:12.555Z,12.12
2023-11-17T01:13:44.532Z,12.04
2023-11-17T01:14:16.816Z,12.07
2023-11-17T01:14:48.713Z,12.07
2023-11-17T01:15:20.975Z,12.09
2023-11-17T01:15:52.928Z,12.12
2023-11-17T01:16:24.895Z,12.04
2023-11-17T01:16:56.838Z,12.08
2023-11-17T01:17:28.826Z,12.09
2023-11-17T01:18:01.713Z,12.08
2023-11-17T01:18:33.637Z,12.08
2023-11-17T01:19:06.081Z,12.07
2023-11-17T01:19:41.054Z,12.04
2023-11-17T01:20:13.709Z,12.08
2023-11-17T01:20:45.916Z,12.11
2023-11-17T01:21:17.825Z,12.06
2023-11-17T01:21:50.024Z,12.07
2023-11-17T01:22:22.264Z,12.07
2023-11-17T01:22:54.179Z,12.09
2023-11-17T01:23:28.328Z,12.12
2023-11-17T01:24:04.083Z,12.08
2023-11-17T01:24:35.981Z,12.12
2023-11-17T01:25:08.288Z,12.13
2023-11-17T01:25:40.412Z,12.11
2023-11-17T01:26:12.296Z,12.18
2023-11-17T01:26:44.679Z,12.20
2023-11-17T01:27:17.380Z,12.21
2023-11-17T01:27:49.365Z,12.16
2023-11-17T01:28:21.325Z,12.20
2023-11-17T01:28:53.284Z,12.19
2023-11-17T01:29:26.093Z,12.12
2023-11-17T01:29:58.051Z,12.11
2023-11-17T01:30:31.311Z,12.09
2023-11-17T01:31:05.600Z,12.11
2023-11-17T01:31:37.706Z,12.09
2023-11-17T01:32:09.614Z,12.10
2023-11-17T01:32:41.611Z,12.08
2023-11-17T01:33:13.508Z,12.11
2023-11-17T01:33:45.784Z,12.10
2023-11-17T01:34:17.897Z,12.11
2023-11-17T01:34:50.249Z,12.12
2023-11-17T01:35:22.224Z,12.15
2023-11-17T01:35:54.183Z,12.18
2023-11-17T01:36:26.154Z,12.20
2023-11-17T01:36:58.098Z,12.23
2023-11-17T01:37:30.039Z,12.12
2023-11-17T01:38:02.755Z,12.12
2023-11-17T01:38:43.271Z,12.15
2023-11-17T01:39:23.104Z,12.14
2023-11-17T01:39:55.022Z,12.13
2023-11-17T01:40:28.693Z,12.15
2023-11-17T01:41:00.649Z,12.14
2023-11-17T01:41:32.556Z,12.17
2023-11-17T01:42:04.752Z,12.19
2023-11-17T01:42:39.784Z,12.17
2023-11-17T01:43:13.245Z,12.05
2023-11-17T01:43:45.240Z,12.09
2023-11-17T01:44:17.205Z,12.10
2023-11-17T01:44:49.168Z,12.08
2023-11-17T01:45:22.515Z,12.10
2023-11-17T01:45:54.678Z,12.13
2023-11-17T01:46:26.787Z,12.18
2023-11-17T01:46:59.550Z,12.20
2023-11-17T01:47:31.787Z,12.19
2023-11-17T01:48:04.055Z,12.23
2023-11-17T01:48:36.145Z,12.25
2023-11-17T01:49:09.846Z,12.16
2023-11-17T01:49:42.869Z,12.19
2023-11-17T01:50:15.827Z,12.20
2023-11-17T01:50:47.832Z,12.14
2023-11-17T01:51:19.850Z,12.19
2023-11-17T01:51:52.508Z,12.19
2023-11-17T01:52:24.466Z,12.20
2023-11-17T01:52:57.103Z,12.24
2023-11-17T01:53:29.615Z,12.25
2023-11-17T01:54:01.748Z,12.30
2023-11-17T01:54:33.936Z,12.23
2023-11-17T01:55:07.190Z,12.23
2023-11-17T01:55:39.149Z,12.20
2023-11-17T01:56:11.138Z,12.23
2023-11-17T01:56:43.312Z,12.29
2023-11-17T01:57:15.279Z,12.27
2023-11-17T01:57:47.372Z,12.26
2023-11-17T01:58:19.318Z,12.15
2023-11-17T01:58:51.620Z,12.09
2023-11-17T01:59:23.547Z,12.14
2023-11-17T01:59:55.616Z,12.23
2023-11-17T02:00:27.505Z,12.24
2023-11-17T02:01:00.118Z,12.18
2023-11-17T02:01:32.416Z,12.24
2023-11-17T02:02:05.839Z,12.29
2023-11-17T02:02:40.062Z,12.31
2023-11-17T02:03:14.898Z,12.24
2023-11-17T02:03:47.319Z,12.25
2023-11-17T02:04:19.398Z,12.21
2023-11-17T02:04:51.400Z,12.20
2023-11-17T02:05:25.563Z,12.18
2023-11-17T02:06:06.483Z,12.23
2023-11-17T02:06:57.752Z,12.27
2023-11-17T02:07:52.174Z,12.23
2023-11-17T02:08:44.073Z,12.22
2023-11-17T02:09:45.679Z,12.27
2023-11-17T02:10:29.821Z,12.25
2023-11-17T02:11:12.023Z,12.28
2023-11-17T02:12:11.519Z,12.21
2023-11-17T02:13:13.432Z,12.15
2023-11-17T02:14:02.156Z,12.22
2023-11-17T02:14:38.292Z,12.19
2023-11-17T02:15:16.002Z,12.23
2023-11-17T02:15:51.707Z,12.24
2023-11-17T02:16:26.280Z,12.23
2023-11-17T02:17:02.163Z,12.15
2023-11-17T02:17:35.686Z,12.14
2023-11-17T02:18:13.390Z,12.13
2023-11-17T02:18:51.203Z,12.09
2023-11-17T02:19:34.745Z,12.10
2023-11-17T02:20:13.476Z,12.05
2023-11-17T02:20:46.323Z,12.09
2023-11-17T02:21:22.311Z,12.09
2023-11-17T02:21:57.911Z,12.11
2023-11-17T02:22:31.654Z,12.11
2023-11-17T02:23:12.281Z,12.15
2023-11-17T02:23:45.259Z,12.17
2023-11-17T02:24:18.179Z,12.17
2023-11-17T02:25:03.597Z,12.18
2023-11-17T02:26:17.163Z,12.19
2023-11-17T02:27:10.871Z,12.17
2023-11-17T02:27:59.292Z,12.15
2023-11-17T02:28:36.565Z,12.20
2023-11-17T02:29:28.716Z,12.22
2023-11-17T02:30:05.231Z,12.22
2023-11-17T02:30:40.653Z,12.22
2023-11-17T02:31:26.842Z,12.18
2023-11-17T02:31:59.975Z,12.21
2023-11-17T02:32:39.612Z,12.24
2023-11-17T02:33:12.278Z,12.24
2023-11-17T02:33:47.236Z,12.25
2023-11-17T02:34:26.007Z,12.26
2023-11-17T02:34:59.492Z,12.26
2023-11-17T02:35:32.648Z,12.28
2023-11-17T02:36:14.243Z,12.29
2023-11-17T02:36:46.722Z,12.24
2023-11-17T02:37:20.105Z,12.24
2023-11-17T02:37:52.816Z,12.24
2023-11-17T02:38:24.749Z,12.27
2023-11-17T02:39:15.690Z,12.23
2023-11-17T02:39:47.874Z,12.14
2023-11-17T02:40:20.167Z,12.21
2023-11-17T02:40:57.374Z,12.21
2023-11-17T02:41:33.834Z,12.22
2023-11-17T02:42:12.137Z,12.25
2023-11-17T02:42:44.095Z,12.23
2023-11-17T02:43:16.624Z,12.26
2023-11-17T02:43:49.809Z,12.23
2023-11-17T02:44:24.038Z,12.24
2023-11-17T02:45:01.738Z,12.27
2023-11-17T02:45:37.730Z,12.28
2023-11-17T02:46:11.206Z,12.25
2023-11-17T02:46:46.035Z,12.23
2023-11-17T02:47:28.761Z,12.24
2023-11-17T02:48:00.907Z,12.27
2023-11-17T02:48:32.809Z,12.29
2023-11-17T02:49:05.594Z,12.31
2023-11-17T02:49:43.981Z,12.30
2023-11-17T02:50:32.666Z,12.26
2023-11-17T02:51:19.465Z,12.25
2023-11-17T02:51:54.389Z,12.25
2023-11-17T02:52:46.302Z,12.20
2023-11-17T02:53:19.994Z,12.23
2023-11-17T02:53:52.264Z,12.22
2023-11-17T02:54:26.613Z,12.24
2023-11-17T02:55:00.423Z,12.24
2023-11-17T02:55:36.732Z,12.26
2023-11-17T02:56:09.012Z,12.28
2023-11-17T02:56:41.608Z,12.25
2023-11-17T02:57:16.191Z,12.28
2023-11-17T02:57:48.673Z,12.30
2023-11-17T02:58:21.799Z,12.31
2023-11-17T02:58:55.908Z,12.28
2023-11-17T02:59:29.298Z,12.24
2023-11-17T03:00:01.736Z,12.26
2023-11-17T03:00:33.831Z,12.26
2023-11-17T03:01:05.938Z,12.29
2023-11-17T03:01:41.916Z,12.27
2023-11-17T03:02:20.770Z,12.26
2023-11-17T03:02:54.412Z,12.25
2023-11-17T03:03:26.394Z,12.22
2023-11-17T03:03:58.393Z,12.24
2023-11-17T03:04:30.891Z,12.26
2023-11-17T03:05:02.831Z,12.27
2023-11-17T03:05:36.288Z,12.28
2023-11-17T03:06:08.458Z,12.30
2023-11-17T03:06:47.731Z,12.27
2023-11-17T03:07:19.890Z,12.29
2023-11-17T03:07:51.789Z,12.23
2023-11-17T03:08:23.681Z,12.25
2023-11-17T03:08:55.627Z,12.21
2023-11-17T03:09:27.534Z,12.23
2023-11-17T03:09:59.529Z,12.24
2023-11-17T03:10:32.120Z,12.28
2023-11-17T03:11:04.450Z,12.26
2023-11-17T03:11:36.464Z,12.27
2023-11-17T03:12:08.366Z,12.26
2023-11-17T03:12:40.275Z,12.27
2023-11-17T03:13:17.443Z,12.24
2023-11-17T03:13:52.476Z,12.23
2023-11-17T03:14:25.688Z,12.26
2023-11-17T03:14:57.936Z,12.25
2023-11-17T03:15:29.853Z,12.25
2023-11-17T03:16:01.861Z,12.28
2023-11-17T03:16:33.950Z,12.30
2023-11-17T03:17:10.734Z,12.30
2023-11-17T03:17:43.046Z,12.30
2023-11-17T03:18:15.013Z,12.27
2023-11-17T03:18:46.947Z,12.27
2023-11-17T03:19:19.033Z,12.24
2023-11-17T03:19:50.990Z,12.27
2023-11-17T03:20:23.023Z,12.22
2023-11-17T03:21:03.347Z,12.18
2023-11-17T03:21:35.454Z,12.14
2023-11-17T03:22:08.239Z,12.13
2023-11-17T03:22:40.352Z,12.15
2023-11-17T03:23:12.269Z,12.16
2023-11-17T03:23:44.173Z,12.19
2023-11-17T03:24:21.926Z,12.16
2023-11-17T03:24:53.932Z,12.21
2023-11-17T03:25:26.943Z,12.23
2023-11-17T03:25:59.400Z,12.22
2023-11-17T03:26:32.241Z,12.25
2023-11-17T03:27:04.340Z,12.26
2023-11-17T03:27:37.357Z,12.25
2023-11-17T03:28:14.522Z,12.26
2023-11-17T03:28:46.517Z,12.26
2023-11-17T03:29:29.331Z,12.28
2023-11-17T03:30:01.408Z,12.28
2023-11-17T03:30:34.239Z,12.25
2023-11-17T03:31:06.345Z,12.26
2023-11-17T03:31:38.419Z,12.25
2023-11-17T03:32:13.483Z,12.24
2023-11-17T03:32:49.157Z,12.23
2023-11-17T03:33:21.262Z,12.20
2023-11-17T03:33:53.195Z,12.24
2023-11-17T03:34:32.909Z,12.23
2023-11-17T03:35:05.708Z,12.22
2023-11-17T03:35:41.761Z,12.24
2023-11-17T03:36:14.613Z,12.21
2023-11-17T03:36:46.733Z,12.23
2023-11-17T03:37:19.678Z,12.17
2023-11-17T03:37:52.114Z,12.21
2023-11-17T03:38:24.088Z,12.20
2023-11-17T03:38:56.846Z,12.19
2023-11-17T03:39:32.803Z,12.15
2023-11-17T03:40:08.673Z,12.16
2023-11-17T03:40:49.362Z,12.15
2023-11-17T03:41:24.168Z,12.19
2023-11-17T03:41:56.773Z,12.19
2023-11-17T03:42:29.791Z,12.19
2023-11-17T03:43:01.909Z,12.16
2023-11-17T03:43:33.825Z,12.15
2023-11-17T03:44:07.624Z,12.16
2023-11-17T03:44:39.963Z,12.18
2023-11-17T03:45:16.684Z,12.19
2023-11-17T03:45:50.588Z,12.21
2023-11-17T03:46:22.976Z,12.21
2023-11-17T03:46:58.812Z,12.25
2023-11-17T03:47:30.826Z,12.25
2023-11-17T03:48:02.872Z,12.21
2023-11-17T03:48:34.803Z,12.19
2023-11-17T03:49:08.216Z,12.18
2023-11-17T03:49:40.241Z,12.17
2023-11-17T03:50:15.633Z,12.19
2023-11-17T03:50:50.282Z,12.16
2023-11-17T03:51:22.427Z,12.18
2023-11-17T03:51:55.081Z,12.21
2023-11-17T03:52:28.005Z,12.25
2023-11-17T03:53:00.875Z,12.24
2023-11-17T03:53:32.758Z,12.22
2023-11-17T03:54:07.007Z,12.19
2023-11-17T03:54:38.907Z,12.21
2023-11-17T03:55:12.656Z,12.21
2023-11-17T03:55:45.031Z,12.20
2023-11-17T03:56:16.935Z,12.21
2023-11-17T03:56:54.033Z,12.22
2023-11-17T03:57:25.997Z,12.25
2023-11-17T03:57:58.071Z,12.24
2023-11-17T03:58:30.024Z,12.25
2023-11-17T03:59:04.728Z,12.23
2023-11-17T03:59:38.076Z,12.24
2023-11-17T04:00:10.968Z,12.21
2023-11-17T04:00:42.866Z,12.21
2023-11-17T04:01:14.853Z,12.20
2023-11-17T04:01:47.665Z,12.13
2023-11-17T04:02:19.818Z,12.11
2023-11-17T04:02:54.470Z,12.13
2023-11-17T04:03:26.530Z,12.15
2023-11-17T04:03:58.554Z,12.11
2023-11-17T04:04:30.638Z,12.11
2023-11-17T04:05:05.181Z,12.12
2023-11-17T04:05:37.211Z,12.14
2023-11-17T04:06:10.267Z,12.14
2023-11-17T04:06:42.216Z,12.16
2023-11-17T04:07:14.122Z,12.20
2023-11-17T04:07:46.220Z,12.18
2023-11-17T04:08:18.509Z,12.18
2023-11-17T04:08:50.477Z,12.18
2023-11-17T04:09:24.508Z,12.14
2023-11-17T04:09:56.579Z,12.19
2023-11-17T04:10:28.498Z,12.15
2023-11-17T04:11:00.434Z,12.08
2023-11-17T04:11:35.971Z,12.09
2023-11-17T04:12:11.149Z,12.09
2023-11-17T04:12:43.183Z,12.07
2023-11-17T04:13:15.558Z,12.07
2023-11-17T04:13:47.501Z,11.99
2023-11-17T04:14:22.580Z,12.05
2023-11-17T04:14:54.471Z,12.03
2023-11-17T04:15:26.353Z,12.01
2023-11-17T04:16:00.689Z,11.98
2023-11-17T04:16:32.794Z,11.97
2023-11-17T04:17:05.113Z,11.96
2023-11-17T04:17:38.448Z,11.95
2023-11-17T04:18:10.440Z,11.94
2023-11-17T04:18:42.547Z,11.95
2023-11-17T04:19:19.163Z,11.97
2023-11-17T04:19:51.169Z,11.98
2023-11-17T04:20:23.066Z,11.97
2023-11-17T04:20:55.052Z,11.94
2023-11-17T04:21:27.229Z,11.90
2023-11-17T04:22:00.032Z,11.89
2023-11-17T04:22:32.061Z,11.90
2023-11-17T04:23:04.232Z,11.90
2023-11-17T04:23:36.625Z,11.85
2023-11-17T04:24:08.883Z,11.84
2023-11-17T04:24:40.772Z,11.85
2023-11-17T04:25:12.755Z,11.84
2023-11-17T04:25:44.693Z,11.84
2023-11-17T04:26:16.592Z,11.83
2023-11-17T04:26:49.781Z,11.87
2023-11-17T04:27:21.717Z,11.82
2023-11-17T04:27:53.767Z,11.83
2023-11-17T04:28:25.774Z,11.82
2023-11-17T04:28:57.685Z,11.82
2023-11-17T04:29:29.598Z,11.87
2023-11-17T04:30:01.485Z,11.85
2023-11-17T04:30:33.374Z,11.83
2023-11-17T04:31:06.682Z,11.80
2023-11-17T04:31:39.415Z,11.76
2023-11-17T04:32:11.336Z,11.74
2023-11-17T04:32:43.414Z,11.68
2023-11-17T04:33:15.688Z,11.72
2023-11-17T04:33:49.909Z,11.73
2023-11-17T04:34:23.035Z,11.74
2023-11-17T04:34:54.952Z,11.75
2023-11-17T04:35:27.272Z,11.74
2023-11-17T04:35:59.984Z,11.76
2023-11-17T04:36:33.938Z,11.78
2023-11-17T04:37:07.167Z,11.80
2023-11-17T04:37:39.692Z,11.76
2023-11-17T04:38:11.596Z,11.76
2023-11-17T04:38:43.493Z,11.70
2023-11-17T04:39:18.958Z,11.68
2023-11-17T04:39:52.401Z,11.64
2023-11-17T04:40:24.418Z,11.63
2023-11-17T04:40:56.424Z,11.60
2023-11-17T04:41:28.409Z,11.59
2023-11-17T04:42:00.331Z,11.61
2023-11-17T04:42:33.095Z,11.58
2023-11-17T04:43:07.955Z,11.57
2023-11-17T04:43:39.870Z,11.59
2023-11-17T04:44:11.790Z,11.55
2023-11-17T04:44:44.173Z,11.46
2023-11-17T04:45:16.205Z,11.50
2023-11-17T04:45:49.457Z,11.53
2023-11-17T04:46:21.561Z,11.54
2023-11-17T04:46:55.490Z,11.54
2023-11-17T04:47:27.508Z,11.52
2023-11-17T04:47:59.530Z,11.49
2023-11-17T04:48:31.761Z,11.51
2023-11-17T04:49:03.736Z,11.54
2023-11-17T04:49:37.686Z,11.54
2023-11-17T04:50:11.480Z,11.48
2023-11-17T04:50:43.742Z,11.44
2023-11-17T04:51:15.655Z,11.43
2023-11-17T04:51:50.411Z,11.40
2023-11-17T04:52:22.625Z,11.41
2023-11-17T04:52:54.638Z,11.44
2023-11-17T04:53:26.665Z,11.49
2023-11-17T04:53:58.598Z,11.48
2023-11-17T04:54:30.881Z,11.48
2023-11-17T04:55:06.753Z,11.53
2023-11-17T04:55:38.720Z,11.50
2023-11-17T04:56:12.793Z,11.51
2023-11-17T04:56:44.843Z,11.51
2023-11-17T04:57:16.772Z,11.51
2023-11-17T04:57:48.662Z,11.49
2023-11-17T04:58:20.864Z,11.49
2023-11-17T04:58:54.047Z,11.51
2023-11-17T04:59:26.013Z,11.54
2023-11-17T04:59:57.953Z,11.56
2023-11-17T05:00:32.531Z,11.60
2023-11-17T05:01:04.606Z,11.62
2023-11-17T05:01:36.669Z,11.63
2023-11-17T05:02:08.765Z,11.62
2023-11-17T05:02:42.599Z,11.59
2023-11-17T05:03:18.495Z,11.57
2023-11-17T05:03:52.185Z,11.56
2023-11-17T05:04:24.293Z,11.52
2023-11-17T05:04:56.310Z,11.54
2023-11-17T05:05:28.589Z,11.49
2023-11-17T05:06:00.613Z,11.54
2023-11-17T05:06:32.509Z,11.51
2023-11-17T05:07:04.590Z,11.55
2023-11-17T05:07:36.548Z,11.54
2023-11-17T05:08:08.493Z,11.58
2023-11-17T05:08:40.377Z,11.58
2023-11-17T05:09:13.453Z,11.54
2023-11-17T05:09:45.892Z,11.58
2023-11-17T05:10:21.751Z,11.56
2023-11-17T05:10:53.800Z,11.59
2023-11-17T05:11:25.732Z,11.63
2023-11-17T05:11:57.692Z,11.65
2023-11-17T05:12:29.604Z,11.63
2023-11-17T05:13:01.593Z,11.64
2023-11-17T05:13:35.836Z,11.66
2023-11-17T05:14:07.814Z,11.64
2023-11-17T05:14:39.834Z,11.65
2023-11-17T05:15:14.062Z,11.69
2023-11-17T05:15:47.690Z,11.64
2023-11-17T05:16:19.776Z,11.67
2023-11-17T05:16:53.729Z,11.69
2023-11-17T05:17:29.314Z,11.65
2023-11-17T05:18:01.525Z,11.69
2023-11-17T05:18:33.878Z,11.70
2023-11-17T05:19:05.854Z,11.70
2023-11-17T05:19:38.670Z,11.72
2023-11-17T05:20:14.783Z,11.68
2023-11-17T05:20:46.711Z,11.69
2023-11-17T05:21:18.681Z,11.67
2023-11-17T05:21:50.589Z,11.71
2023-11-17T05:22:22.580Z,11.67
2023-11-17T05:22:55.945Z,11.66
2023-11-17T05:23:27.935Z,11.69
2023-11-17T05:24:05.596Z,11.70
2023-11-17T05:24:37.486Z,11.71
2023-11-17T05:25:09.637Z,11.69
2023-11-17T05:25:41.837Z,11.67
2023-11-17T05:26:13.910Z,11.70
2023-11-17T05:26:45.798Z,11.74
2023-11-17T05:27:18.041Z,11.71
2023-11-17T05:27:50.749Z,11.70
2023-11-17T05:28:22.704Z,11.71
2023-11-17T05:28:54.603Z,11.73
2023-11-17T05:29:28.585Z,11.73
2023-11-17T05:30:00.612Z,11.70
2023-11-17T05:30:33.835Z,11.74
2023-11-17T05:31:06.284Z,11.70
2023-11-17T05:31:40.092Z,11.70
2023-11-17T05:32:12.091Z,11.70
2023-11-17T05:32:47.780Z,11.71
2023-11-17T05:33:22.770Z,11.70
2023-11-17T05:33:55.264Z,11.68
2023-11-17T05:34:27.272Z,11.62
2023-11-17T05:34:59.977Z,11.62
2023-11-17T05:35:33.033Z,11.62
2023-11-17T05:36:05.395Z,11.60
2023-11-17T05:36:42.005Z,11.59
2023-11-17T05:37:14.000Z,11.59
2023-11-17T05:37:45.901Z,11.62
2023-11-17T05:38:17.822Z,11.59
2023-11-17T05:38:49.779Z,11.61
2023-11-17T05:39:21.935Z,11.61
2023-11-17T05:39:54.520Z,11.63
2023-11-17T05:40:26.542Z,11.59
2023-11-17T05:40:59.449Z,11.58
2023-11-17T05:41:31.357Z,11.62
2023-11-17T05:42:04.435Z,11.62
2023-11-17T05:42:37.937Z,11.60
2023-11-17T05:43:09.911Z,11.60
2023-11-17T05:43:47.269Z,11.56
2023-11-17T05:44:19.194Z,11.59
2023-11-17T05:44:51.146Z,11.55
2023-11-17T05:45:23.056Z,11.60
2023-11-17T05:45:56.774Z,11.58
2023-11-17T05:46:29.526Z,11.57
2023-11-17T05:47:01.553Z,11.59
2023-11-17T05:47:33.606Z,11.55
2023-11-17T05:48:07.665Z,11.52
2023-11-17T05:48:39.755Z,11.53
2023-11-17T05:49:11.741Z,11.57
2023-11-17T05:49:46.512Z,11.60
2023-11-17T05:50:20.191Z,11.66
2023-11-17T05:50:52.119Z,11.58
2023-11-17T05:51:24.048Z,11.58
2023-11-17T05:51:56.379Z,11.60
2023-11-17T05:52:28.333Z,11.59
2023-11-17T05:53:01.411Z,11.60
2023-11-17T05:53:33.349Z,11.60
2023-11-17T05:54:05.239Z,11.61
2023-11-17T05:54:46.117Z,11.63
2023-11-17T05:55:18.840Z,11.63
2023-11-17T05:55:51.028Z,11.60
2023-11-17T05:56:23.271Z,11.61
2023-11-17T05:56:56.231Z,11.59
2023-11-17T05:57:28.131Z,11.58
2023-11-17T05:58:00.369Z,11.60
2023-11-17T05:58:32.395Z,11.58
2023-11-17T05:59:04.622Z,11.62
2023-11-17T05:59:36.540Z,11.60
2023-11-17T06:00:10.253Z,11.61
2023-11-17T06:00:42.317Z,11.57
2023-11-17T06:01:15.204Z,11.60
2023-11-17T06:02:19.436Z,11.58
2023-11-17T06:02:53.309Z,11.61
2023-11-17T06:03:25.297Z,11.59
2023-11-17T06:03:57.719Z,11.63
2023-11-17T06:04:29.768Z,11.67
2023-11-17T06:05:01.749Z,11.66
2023-11-17T06:05:33.868Z,11.64
2023-11-17T06:06:05.816Z,11.68
2023-11-17T06:06:37.757Z,11.69
2023-11-17T06:07:10.212Z,11.69
2023-11-17T06:07:42.881Z,11.66
2023-11-17T06:08:14.816Z,11.66
2023-11-17T06:08:46.934Z,11.67
2023-11-17T06:09:21.065Z,11.69
2023-11-17T06:09:54.983Z,11.67
2023-11-17T06:10:26.925Z,11.66
2023-11-17T06:11:02.055Z,11.66
2023-11-17T06:11:37.253Z,11.64
2023-11-17T06:12:10.861Z,11.64
2023-11-17T06:12:42.946Z,11.62
2023-11-17T06:13:17.036Z,11.60
2023-11-17T06:13:49.039Z,11.58
2023-11-17T06:14:22.164Z,11.59
2023-11-17T06:14:54.251Z,11.59
2023-11-17T06:15:29.148Z,11.61
2023-11-17T06:16:01.162Z,11.61
2023-11-17T06:16:34.988Z,11.65
2023-11-17T06:17:10.356Z,11.62
2023-11-17T06:17:42.530Z,11.64
2023-11-17T06:18:14.461Z,11.64
2023-11-17T06:18:47.302Z,11.66
2023-11-17T06:19:19.225Z,11.66
2023-11-17T06:19:51.159Z,11.65
2023-11-17T06:20:24.447Z,11.66
2023-11-17T06:20:57.378Z,11.60
2023-11-17T06:21:29.975Z,11.64
2023-11-17T06:22:01.924Z,11.64
2023-11-17T06:22:33.928Z,11.63
2023-11-17T06:23:06.155Z,11.63
2023-11-17T06:23:39.447Z,11.61
2023-11-17T06:24:11.396Z,11.63
2023-11-17T06:24:43.300Z,11.64
2023-11-17T06:25:15.257Z,11.63
2023-11-17T06:25:47.260Z,11.63
2023-11-17T06:26:19.208Z,11.66
2023-11-17T06:26:51.225Z,11.66
2023-11-17T06:27:24.601Z,11.69
2023-11-17T06:27:56.542Z,11.72
2023-11-17T06:28:28.494Z,11.70
2023-11-17T06:29:02.696Z,11.70
2023-11-17T06:29:34.999Z,11.74
2023-11-17T06:30:07.839Z,11.74
2023-11-17T06:30:39.768Z,11.76
2023-11-17T06:31:13.050Z,11.73
2023-11-17T06:31:45.457Z,11.79
2023-11-17T06:32:18.044Z,11.78
2023-11-17T06:32:50.161Z,11.77
2023-11-17T06:33:23.592Z,11.75
2023-11-17T06:33:55.663Z,11.76
2023-11-17T06:34:27.601Z,11.79
2023-11-17T06:34:59.540Z,11.81
2023-11-17T06:35:31.439Z,11.84
2023-11-17T06:36:05.190Z,11.85
2023-11-17T06:36:41.372Z,11.84
2023-11-17T06:37:13.699Z,11.81
2023-11-17T06:37:45.637Z,11.82
2023-11-17T06:38:17.819Z,11.83
2023-11-17T06:38:49.747Z,11.79
2023-11-17T06:39:23.131Z,11.79
2023-11-17T06:39:55.943Z,11.76
2023-11-17T06:40:27.960Z,11.78
2023-11-17T06:41:00.689Z,11.79
2023-11-17T06:41:33.005Z,11.85
2023-11-17T06:42:08.289Z,11.87
2023-11-17T06:42:41.574Z,11.89
2023-11-17T06:43:14.116Z,11.90
2023-11-17T06:43:46.059Z,11.93
2023-11-17T06:44:19.590Z,11.97
2023-11-17T06:44:52.613Z,11.95
2023-11-17T06:45:24.538Z,11.89
2023-11-17T06:45:56.821Z,11.90
2023-11-17T06:46:28.862Z,11.89
2023-11-17T06:47:01.306Z,11.93
2023-11-17T06:47:34.042Z,11.91
2023-11-17T06:48:08.162Z,11.88
2023-11-17T06:48:40.129Z,11.88
2023-11-17T06:49:18.132Z,11.92
2023-11-17T06:49:51.233Z,11.91
2023-11-17T06:50:23.468Z,11.96
2023-11-17T06:50:55.481Z,11.98
2023-11-17T06:51:27.506Z,12.00
2023-11-17T06:52:00.116Z,12.00
2023-11-17T06:52:32.909Z,12.00
2023-11-17T06:53:05.273Z,12.01
2023-11-17T06:53:37.184Z,11.98
2023-11-17T06:54:16.586Z,11.97
2023-11-17T06:54:48.553Z,11.94
2023-11-17T06:55:20.748Z,11.95
2023-11-17T06:55:52.832Z,12.03
2023-11-17T06:56:26.218Z,12.01
2023-11-17T06:56:58.114Z,12.03
2023-11-17T06:57:30.906Z,11.99
2023-11-17T06:58:02.840Z,11.99
2023-11-17T06:58:35.492Z,11.97
2023-11-17T06:59:07.431Z,11.99
2023-11-17T06:59:39.330Z,12.02
2023-11-17T07:00:14.111Z,12.05
2023-11-17T07:00:46.235Z,12.04
2023-11-17T07:01:20.350Z,12.08
2023-11-17T07:01:52.776Z,12.06
2023-11-17T07:02:25.982Z,12.09
2023-11-17T07:03:02.204Z,12.02
2023-11-17T07:03:34.263Z,12.05
2023-11-17T07:04:14.200Z,12.07
2023-11-17T07:04:46.332Z,12.00
2023-11-17T07:05:18.528Z,12.00
2023-11-17T07:05:50.798Z,11.97
2023-11-17T07:06:28.237Z,11.94
2023-11-17T07:07:00.674Z,11.97
2023-11-17T07:07:32.699Z,12.02
2023-11-17T07:08:05.930Z,12.02
2023-11-17T07:08:38.590Z,12.01
2023-11-17T07:09:17.574Z,11.96
2023-11-17T07:09:50.158Z,11.99
2023-11-17T07:10:23.825Z,11.98
2023-11-17T07:10:57.203Z,11.96
2023-11-17T07:11:30.319Z,11.98
2023-11-17T07:12:04.117Z,11.97